Time;durP1;ratioP1;P1;durP2;ratioP2;P2;SDS_P1;SDS_P2;PMS_P1;PMS_P2;Temp;Humidity;BMP_temperature;BMP_pressure;BME280_temperature;BME280_humidity;BME280_pressure;Samples;Min_cycle;Max_cycle;Signal;HPM_P1;HPM_P2
2023/01/02 00:00:07;;;;;;;3.50;2.87;;;;;;;12.57;87.79;100296.06;5045167;28;20235;-78
2023/01/02 00:02:33;;;;;;;5.87;2.60;;;;;;;12.60;87.63;100280.25;5042963;28;20224;-78
2023/01/02 00:05:00;;;;;;;4.93;3.03;;;;;;;12.60;87.49;100282.84;5049667;28;20194;-79
2023/01/02 00:07:26;;;;;;;4.33;3.00;;;;;;;12.61;87.88;100277.59;5045916;28;20258;-79
2023/01/02 00:09:54;;;;;;;5.00;2.70;;;;;;;12.59;87.08;100283.78;5047024;28;20752;-79
2023/01/02 00:12:20;;;;;;;7.77;2.70;;;;;;;12.59;87.31;100275.94;5043769;28;20284;-80
2023/01/02 00:14:46;;;;;;;5.47;2.80;;;;;;;12.67;86.79;100277.41;5043023;28;20223;-79
2023/01/02 00:17:13;;;;;;;5.27;2.73;;;;;;;12.69;86.62;100279.97;5039643;28;20239;-79
2023/01/02 00:19:39;;;;;;;3.67;2.47;;;;;;;12.65;86.99;100279.22;5033623;28;20848;-79
2023/01/02 00:22:05;;;;;;;4.60;2.30;;;;;;;12.67;87.24;100266.06;5034250;28;20258;-79
2023/01/02 00:24:32;;;;;;;6.57;2.73;;;;;;;12.61;87.46;100259.25;5035074;28;20207;-79
2023/01/02 00:26:59;;;;;;;4.17;2.93;;;;;;;12.61;87.49;100243.53;5034326;28;20207;-79
2023/01/02 00:29:26;;;;;;;4.47;2.90;;;;;;;12.62;85.88;100270.59;5034999;28;20216;-79
2023/01/02 00:31:52;;;;;;;5.93;2.80;;;;;;;12.61;85.88;100264.50;5034784;28;20676;-79
2023/01/02 00:34:19;;;;;;;4.10;2.70;;;;;;;12.70;85.83;100273.81;5039977;28;20673;-79
2023/01/02 00:36:45;;;;;;;6.70;3.10;;;;;;;12.75;85.97;100255.38;5054609;28;20212;-79
2023/01/02 00:39:11;;;;;;;4.83;2.37;;;;;;;12.73;86.31;100257.19;5054629;28;20206;-79
2023/01/02 00:41:38;;;;;;;4.97;2.50;;;;;;;12.70;84.94;100253.75;5054068;28;20208;-79
2023/01/02 00:44:05;;;;;;;3.27;2.93;;;;;;;12.71;86.63;100237.13;5054152;28;20272;-79
2023/01/02 00:46:32;;;;;;;6.87;3.50;;;;;;;12.73;85.75;100225.75;5054019;28;20630;-79
2023/01/02 00:48:58;;;;;;;4.87;2.50;;;;;;;12.70;85.49;100263.34;5053838;28;21013;-80
2023/01/02 00:51:24;;;;;;;7.57;2.80;;;;;;;12.66;83.63;100285.28;5053055;28;20241;-79
2023/01/02 00:53:51;;;;;;;4.50;2.53;;;;;;;12.76;83.07;100307.69;5052926;28;20790;-79
2023/01/02 00:56:17;;;;;;;7.60;2.70;;;;;;;12.77;82.72;100319.88;5053343;28;20965;-79
2023/01/02 00:58:43;;;;;;;5.63;2.80;;;;;;;12.77;82.43;100346.06;5053888;28;20219;-79
2023/01/02 01:01:11;;;;;;;6.03;2.53;;;;;;;12.74;81.44;100359.25;5053233;28;20202;-79
2023/01/02 01:03:38;;;;;;;4.40;2.63;;;;;;;12.83;81.50;100364.22;5052962;28;20231;-79
2023/01/02 01:06:08;;;;;;;5.60;2.80;;;;;;;12.82;81.38;100370.34;5046098;28;20564;-78
2023/01/02 01:08:35;;;;;;;6.57;2.70;;;;;;;12.81;81.52;100360.78;5054135;28;20207;-79
2023/01/02 01:11:05;;;;;;;2.63;2.43;;;;;;;12.83;80.92;100376.47;5053564;28;20251;-79
2023/01/02 01:13:31;;;;;;;4.57;2.50;;;;;;;12.65;78.85;100402.28;5055678;28;20272;-79
2023/01/02 01:16:03;;;;;;;4.87;2.67;;;;;;;12.78;79.30;100417.66;5053298;28;20230;-79
2023/01/02 01:18:31;;;;;;;4.23;2.70;;;;;;;12.77;78.86;100429.03;5053800;28;20693;-78
2023/01/02 01:20:57;;;;;;;6.57;2.43;;;;;;;12.78;78.19;100449.09;5050048;28;20274;-78
2023/01/02 01:23:24;;;;;;;3.57;2.83;;;;;;;12.66;77.50;100464.22;5043671;28;20230;-79
2023/01/02 01:25:50;;;;;;;5.00;2.83;;;;;;;12.74;78.33;100460.53;5044039;28;20273;-79
2023/01/02 01:28:16;;;;;;;6.13;2.50;;;;;;;12.76;77.75;100466.59;5042869;28;20207;-79
2023/01/02 01:30:43;;;;;;;2.73;2.13;;;;;;;12.67;78.03;100468.56;5043497;28;20225;-79
2023/01/02 01:33:09;;;;;;;7.10;2.60;;;;;;;12.72;79.12;100450.09;5043623;28;20716;-79
2023/01/02 01:35:37;;;;;;;4.27;2.90;;;;;;;12.75;79.17;100426.47;5045353;28;20274;-80
2023/01/02 01:38:03;;;;;;;5.10;2.43;;;;;;;12.60;80.10;100419.88;5040776;28;20264;-79
2023/01/02 01:40:37;;;;;;;3.97;2.60;;;;;;;12.42;81.38;100371.50;5035707;28;20262;-79
2023/01/02 01:43:03;;;;;;;3.13;2.30;;;;;;;12.34;82.23;100318.50;5038579;28;20234;-78
2023/01/02 01:45:30;;;;;;;6.10;2.93;;;;;;;12.30;82.55;100290.72;5047217;28;20199;-79
2023/01/02 01:48:00;;;;;;;5.50;2.60;;;;;;;12.37;81.84;100288.75;5048096;28;20257;-79
2023/01/02 01:50:31;;;;;;;6.90;2.83;;;;;;;12.36;82.24;100287.06;5049546;28;20677;-79
2023/01/02 01:53:09;;;;;;;5.03;2.57;;;;;;;12.34;82.53;100287.09;5037240;28;20227;-79
2023/01/02 01:55:38;;;;;;;3.37;2.60;;;;;;;12.29;81.80;100292.47;5048999;23;20231;-82
2023/01/02 01:58:11;;;;;;;4.50;2.77;;;;;;;12.23;81.06;100295.25;5034892;28;20671;-81
2023/01/02 02:00:39;;;;;;;5.87;2.13;;;;;;;12.30;82.06;100291.56;5034251;28;20208;-81
2023/01/02 02:03:09;;;;;;;5.17;2.40;;;;;;;12.31;80.13;100323.84;5034099;28;20635;-81
2023/01/02 02:05:36;;;;;;;6.33;2.47;;;;;;;12.40;80.32;100343.66;5047623;28;20234;-82
2023/01/02 02:08:13;;;;;;;3.30;2.47;;;;;;;12.44;79.66;100354.00;5054366;28;20554;-82
2023/01/02 02:10:40;;;;;;;6.27;2.83;;;;;;;12.45;79.39;100368.81;5044320;28;20274;-80
2023/01/02 02:13:07;;;;;;;2.77;2.00;;;;;;;12.52;79.64;100380.81;5033416;28;20567;-81
2023/01/02 02:15:43;;;;;;;4.73;2.60;;;;;;;12.52;79.21;100380.81;5034186;28;20260;-81
2023/01/02 02:18:23;;;;;;;7.23;2.60;;;;;;;12.45;79.88;100367.97;5034323;28;20620;-82
2023/01/02 02:20:56;;;;;;;6.47;2.50;;;;;;;12.43;79.93;100356.69;5034364;28;20202;-82
2023/01/02 02:23:57;;;;;;;5.00;2.93;;;;;;;12.44;79.16;100361.00;5034228;28;20198;-82
2023/01/02 02:26:48;;;;;;;6.03;2.60;;;;;;;12.49;78.41;100382.69;5034009;28;20233;-81
2023/01/02 02:29:59;;;;;;;8.57;2.70;;;;;;;12.52;77.97;100387.81;5034302;28;20266;-82
2023/01/02 02:32:34;;;;;;;5.27;2.23;;;;;;;12.61;77.47;100410.28;5013960;28;20248;-81
2023/01/02 02:35:06;;;;;;;3.73;2.47;;;;;;;12.67;76.73;100429.28;5034302;28;20227;-81
2023/01/02 02:37:41;;;;;;;8.03;2.90;;;;;;;12.78;77.26;100431.59;5034369;28;20208;-81
2023/01/02 02:40:16;;;;;;;5.03;2.57;;;;;;;12.89;74.39;100468.84;5033713;28;20220;-80
2023/01/02 02:42:55;;;;;;;4.77;2.60;;;;;;;12.99;73.82;100493.03;5034632;28;20208;-82
2023/01/02 02:45:31;;;;;;;5.97;2.50;;;;;;;13.09;73.94;100533.78;5028888;28;20236;-80
2023/01/02 02:48:05;;;;;;;6.00;2.30;;;;;;;13.17;73.41;100530.09;5053611;28;20204;-81
2023/01/02 02:50:36;;;;;;;5.60;2.60;;;;;;;13.17;73.98;100530.09;5053686;28;20195;-81
2023/01/02 02:53:08;;;;;;;3.83;2.87;;;;;;;13.24;72.94;100537.75;5054066;28;20213;-80
2023/01/02 02:55:41;;;;;;;3.97;2.13;;;;;;;13.33;72.94;100559.41;5053547;28;20270;-81
2023/01/02 02:58:08;;;;;;;6.13;2.03;;;;;;;13.37;71.51;100567.13;5053796;28;20226;-81
2023/01/02 03:00:34;;;;;;;3.60;2.27;;;;;;;13.47;71.63;100589.56;5053759;28;20203;-82
2023/01/02 03:03:13;;;;;;;4.27;2.10;;;;;;;13.50;71.38;100591.25;5053936;28;20269;-80
2023/01/02 03:05:43;;;;;;;3.80;2.43;;;;;;;13.61;70.23;100612.75;5053621;28;20292;-81
2023/01/02 03:08:16;;;;;;;5.53;2.00;;;;;;;13.70;70.24;100627.41;5054060;28;20260;-81
2023/01/02 03:10:49;;;;;;;5.50;2.70;;;;;;;13.75;70.67;100641.22;5053612;28;20204;-80
2023/01/02 03:13:24;;;;;;;6.13;3.00;;;;;;;13.73;71.33;100635.16;5050657;28;20243;-81
2023/01/02 03:16:00;;;;;;;5.13;2.23;;;;;;;13.73;70.18;100626.44;5044902;28;20278;-80
2023/01/02 03:18:34;;;;;;;4.83;2.20;;;;;;;13.74;69.76;100646.53;5056130;28;20205;-82
2023/01/02 03:21:05;;;;;;;4.80;2.40;;;;;;;13.79;69.35;100652.50;5058163;28;20595;-81
2023/01/02 03:23:36;;;;;;;3.20;2.00;;;;;;;13.81;69.09;100659.41;5058160;28;20287;-80
2023/01/02 03:26:04;;;;;;;5.63;2.30;;;;;;;13.89;70.20;100670.56;5057840;28;20642;-81
2023/01/02 03:28:32;;;;;;;5.10;2.30;;;;;;;13.90;70.05;100672.28;5057776;28;20207;-81
2023/01/02 03:31:02;;;;;;;4.80;2.17;;;;;;;13.93;68.51;100681.81;5057498;28;20206;-81
2023/01/02 03:33:32;;;;;;;4.50;2.37;;;;;;;13.99;69.33;100678.16;5057681;28;20216;-81
2023/01/02 03:36:03;;;;;;;4.70;2.40;;;;;;;13.97;69.08;100683.44;5057454;28;20229;-80
2023/01/02 03:38:35;;;;;;;5.43;2.20;;;;;;;13.99;68.83;100686.88;5058029;28;20220;-81
2023/01/02 03:41:08;;;;;;;4.73;2.23;;;;;;;14.01;69.48;100682.47;5057589;28;20284;-81
2023/01/02 03:43:37;;;;;;;6.13;2.23;;;;;;;14.01;69.48;100673.72;5052202;28;20255;-81
2023/01/02 03:46:09;;;;;;;5.07;2.60;;;;;;;13.96;68.94;100670.38;5037346;28;20232;-81
2023/01/02 03:48:41;;;;;;;4.47;1.90;;;;;;;13.94;69.12;100675.69;5037638;28;20208;-81
2023/01/02 03:51:07;;;;;;;7.03;2.70;;;;;;;13.93;69.43;100673.94;5037442;28;20212;-81
2023/01/02 03:53:35;;;;;;;4.43;2.53;;;;;;;13.94;69.56;100662.56;5037915;28;20205;-82
2023/01/02 03:56:11;;;;;;;2.70;1.93;;;;;;;13.92;69.39;100651.25;5038080;28;20235;-82
2023/01/02 03:58:45;;;;;;;2.97;2.17;;;;;;;13.97;69.34;100646.69;5038082;28;20603;-81
2023/01/02 04:01:17;;;;;;;7.07;2.27;;;;;;;13.94;68.42;100654.69;5040169;28;20230;-80
2023/01/02 04:03:50;;;;;;;10.17;3.07;;;;;;;14.00;69.28;100640.53;5050981;28;20234;-79
2023/01/02 04:06:20;;;;;;;2.93;2.17;;;;;;;14.02;69.70;100641.34;5051020;28;20302;-81
2023/01/02 04:08:52;;;;;;;5.23;2.33;;;;;;;13.99;68.26;100667.66;5051869;28;20200;-80
2023/01/02 04:11:20;;;;;;;3.67;2.47;;;;;;;14.05;68.13;100675.34;5051578;28;20207;-80
2023/01/02 04:13:51;;;;;;;4.60;2.33;;;;;;;14.04;68.41;100668.41;5048365;28;20213;-81
2023/01/02 04:16:22;;;;;;;4.20;2.33;;;;;;;14.05;67.94;100655.22;5041659;28;20243;-82
2023/01/02 04:18:54;;;;;;;4.70;2.33;;;;;;;14.07;67.63;100671.78;5036671;28;20217;-80
2023/01/02 04:21:26;;;;;;;5.03;2.33;;;;;;;14.15;68.10;100668.06;5036526;28;20254;-79
2023/01/02 04:23:59;;;;;;;4.07;2.13;;;;;;;14.12;67.87;100682.16;5036516;28;20268;-81
2023/01/02 04:26:30;;;;;;;8.10;2.43;;;;;;;14.08;68.25;100677.91;5036456;28;20207;-81
2023/01/02 04:28:56;;;;;;;5.93;2.50;;;;;;;14.07;67.84;100671.78;5035914;28;20586;-81
2023/01/02 04:31:27;;;;;;;6.27;2.13;;;;;;;14.08;68.48;100662.16;5036173;28;20212;-79
2023/01/02 04:33:58;;;;;;;5.93;2.80;;;;;;;14.01;67.93;100658.84;5036503;28;20207;-81
2023/01/02 04:36:25;;;;;;;7.03;3.17;;;;;;;14.07;67.70;100677.03;5035974;28;20226;-80
2023/01/02 04:38:52;;;;;;;6.33;2.43;;;;;;;14.12;68.14;100684.78;5036106;28;20215;-81
2023/01/02 04:41:25;;;;;;;4.13;2.47;;;;;;;14.13;68.13;100683.84;5035915;28;20230;-80
2023/01/02 04:43:52;;;;;;;3.87;2.40;;;;;;;14.12;68.29;100681.28;5036249;28;20214;-79
2023/01/02 04:46:21;;;;;;;3.67;2.20;;;;;;;14.08;66.72;100676.13;5051154;28;20227;-81
2023/01/02 04:48:48;;;;;;;4.50;2.37;;;;;;;14.17;67.25;100698.63;5056064;28;20564;-80
2023/01/02 04:51:15;;;;;;;3.87;2.07;;;;;;;14.19;66.28;100704.69;5055599;28;20265;-81
2023/01/02 04:53:42;;;;;;;16.80;4.10;;;;;;;14.23;66.94;100726.44;5056022;28;20262;-80
2023/01/02 04:56:08;;;;;;;4.07;2.20;;;;;;;14.20;67.19;100727.41;5055906;28;20262;-81
2023/01/02 04:58:35;;;;;;;3.90;1.90;;;;;;;14.16;67.46;100715.28;5055755;28;20202;-80
2023/01/02 05:01:01;;;;;;;4.20;2.57;;;;;;;14.20;67.08;100713.44;5055739;28;20212;-80
2023/01/02 05:03:27;;;;;;;7.83;2.40;;;;;;;14.22;67.53;100703.75;5055546;28;20209;-81
2023/01/02 05:05:59;;;;;;;7.33;2.33;;;;;;;14.18;66.67;100683.72;5055339;28;20258;-78
2023/01/02 05:08:28;;;;;;;5.83;2.27;;;;;;;14.19;66.60;100694.19;5055756;28;20207;-79
2023/01/02 05:10:54;;;;;;;8.60;2.40;;;;;;;14.24;66.46;100704.56;5055208;28;20210;-81
2023/01/02 05:13:20;;;;;;;5.50;2.60;;;;;;;14.27;67.00;100691.31;5051546;28;20707;-82
2023/01/02 05:15:54;;;;;;;7.87;1.83;;;;;;;14.25;67.08;100698.38;5054090;28;20224;-81
2023/01/02 05:18:20;;;;;;;4.87;2.30;;;;;;;14.18;66.94;100676.72;5055481;28;20296;-81
2023/01/02 05:20:47;;;;;;;3.57;2.47;;;;;;;14.16;67.14;100675.91;5055427;28;20216;-80
2023/01/02 05:25:59;;;;;;;7.93;2.33;;;;;;;14.19;67.23;100703.81;5055379;28;20295;-81
2023/01/02 05:28:25;;;;;;;5.30;2.53;;;;;;;14.21;67.14;100709.88;5055314;28;20213;-80
2023/01/02 05:30:51;;;;;;;6.87;1.90;;;;;;;14.17;66.84;100708.25;5054588;28;20205;-80
2023/01/02 05:33:18;;;;;;;4.00;2.27;;;;;;;14.19;67.07;100706.44;5055029;28;20211;-81
2023/01/02 05:35:44;;;;;;;4.13;2.23;;;;;;;14.09;66.98;100696.22;5055365;28;20225;-80
2023/01/02 05:38:10;;;;;;;4.70;2.90;;;;;;;14.08;66.42;100705.00;5055138;28;20203;-79
2023/01/02 05:40:37;;;;;;;4.17;1.97;;;;;;;14.11;67.19;100698.78;5054037;28;20644;-82
2023/01/02 05:43:04;;;;;;;4.27;2.27;;;;;;;14.12;67.14;100700.53;5053447;28;20203;-81
2023/01/02 05:45:31;;;;;;;7.23;2.30;;;;;;;14.10;67.39;100687.44;5051703;28;20229;-82
2023/01/02 05:47:57;;;;;;;2.53;2.00;;;;;;;14.16;67.45;100675.03;5054758;28;20253;-81
2023/01/02 05:50:23;;;;;;;5.33;2.50;;;;;;;14.15;67.24;100689.06;5054633;28;20204;-81
2023/01/02 05:52:50;;;;;;;3.90;1.87;;;;;;;14.13;66.64;100696.97;5054916;28;20258;-79
2023/01/02 05:55:16;;;;;;;2.73;1.93;;;;;;;14.18;66.08;100713.47;5054495;28;20236;-79
2023/01/02 05:57:42;;;;;;;4.80;2.10;;;;;;;14.22;66.58;100719.50;5054575;28;20266;-79
2023/01/02 06:00:12;;;;;;;6.47;2.53;;;;;;;14.24;66.31;100715.91;5054417;28;20217;-81
2023/01/02 06:02:38;;;;;;;3.83;2.07;;;;;;;14.27;66.31;100714.94;5054949;28;20200;-81
2023/01/02 06:05:06;;;;;;;8.17;2.53;;;;;;;14.25;66.38;100711.50;5054719;28;20281;-80
2023/01/02 06:07:32;;;;;;;3.43;2.03;;;;;;;14.24;66.24;100717.69;5054079;28;20714;-79
2023/01/02 06:09:58;;;;;;;6.70;3.37;;;;;;;14.35;66.67;100722.59;5054669;28;20219;-81
2023/01/02 06:12:25;;;;;;;4.40;2.47;;;;;;;14.33;66.56;100708.66;5054313;28;20208;-81
2023/01/02 06:14:51;;;;;;;9.60;2.60;;;;;;;14.27;66.67;100691.31;5041333;28;20285;-81
2023/01/02 06:17:20;;;;;;;5.37;2.70;;;;;;;14.29;68.03;100671.13;5054155;28;20643;-82
2023/01/02 06:19:46;;;;;;;4.80;2.50;;;;;;;14.25;68.97;100616.97;5054430;28;20253;-80
2023/01/02 06:22:13;;;;;;;6.63;2.40;;;;;;;14.21;68.25;100629.38;5054473;28;20211;-79
2023/01/02 06:24:39;;;;;;;3.23;1.73;;;;;;;14.21;67.97;100625.88;5054267;28;20264;-78
2023/01/02 06:27:06;;;;;;;3.33;2.40;;;;;;;14.24;67.98;100642.38;5054291;28;20203;-81
2023/01/02 06:29:32;;;;;;;6.17;2.83;;;;;;;14.17;67.90;100645.25;5054056;28;20212;-81
2023/01/02 06:31:59;;;;;;;5.73;2.00;;;;;;;14.23;67.85;100642.44;5054194;28;20215;-81
2023/01/02 06:34:26;;;;;;;6.33;2.17;;;;;;;14.27;69.07;100625.66;5053772;28;20230;-82
2023/01/02 06:36:54;;;;;;;4.97;2.23;;;;;;;14.19;69.63;100604.94;5053606;28;20775;-81
2023/01/02 06:39:21;;;;;;;5.00;2.60;;;;;;;14.12;69.31;100587.63;5054033;28;20239;-81
2023/01/02 06:41:47;;;;;;;3.40;2.03;;;;;;;14.12;69.96;100576.28;5053107;28;20582;-81
2023/01/02 06:44:14;;;;;;;5.37;2.27;;;;;;;14.03;69.94;100561.66;5042447;28;20216;-79
2023/01/02 06:46:40;;;;;;;3.50;2.23;;;;;;;14.01;69.92;100561.75;5043750;28;20261;-80
2023/01/02 06:49:06;;;;;;;4.07;2.00;;;;;;;14.05;68.94;100555.47;5049454;28;20209;-83
2023/01/02 06:51:34;;;;;;;3.43;2.20;;;;;;;14.14;69.36;100577.94;5041415;28;20208;-80
2023/01/02 06:54:00;;;;;;;4.57;2.47;;;;;;;14.11;69.74;100567.53;5052781;28;20218;-81
2023/01/02 06:56:27;;;;;;;2.63;1.73;;;;;;;14.11;69.36;100572.78;5041275;28;20571;-82
2023/01/02 06:58:53;;;;;;;5.30;2.10;;;;;;;14.11;69.84;100551.78;5021256;28;20580;-79
2023/01/02 07:01:21;;;;;;;3.13;1.93;;;;;;;14.10;69.81;100569.31;5022619;28;20731;-82
2023/01/02 07:03:48;;;;;;;3.53;2.20;;;;;;;14.07;68.95;100568.53;5025481;28;20204;-81
2023/01/02 07:06:16;;;;;;;4.80;2.07;;;;;;;14.10;69.44;100585.06;5024198;28;20262;-82
2023/01/02 07:08:44;;;;;;;6.43;2.20;;;;;;;14.13;69.33;100591.97;5023525;28;20218;-82
2023/01/02 07:11:12;;;;;;;3.60;2.10;;;;;;;14.12;68.87;100597.28;5021996;28;20235;-82
2023/01/02 07:13:38;;;;;;;6.70;3.47;;;;;;;14.18;69.00;100592.69;5027346;28;20617;-82
2023/01/02 07:16:06;;;;;;;4.70;1.90;;;;;;;14.18;69.15;100587.44;5026826;28;20220;-83
2023/01/02 07:18:34;;;;;;;4.00;1.73;;;;;;;14.08;69.75;100586.03;5024525;28;20220;-79
2023/01/02 07:21:00;;;;;;;5.37;1.73;;;;;;;14.12;69.87;100582.38;5022768;28;20211;-84
2023/01/02 07:23:27;;;;;;;2.67;1.90;;;;;;;14.03;69.87;100574.78;5023268;28;20965;-82
2023/01/02 07:25:57;;;;;;;6.70;2.03;;;;;;;14.01;70.59;100579.22;5024079;28;20733;-78
2023/01/02 07:28:24;;;;;;;7.00;2.37;;;;;;;14.02;69.41;100576.56;5023390;28;20232;-82
2023/01/02 07:30:50;;;;;;;3.17;1.60;;;;;;;14.08;68.79;100602.63;5021316;28;20204;-82
2023/01/02 07:33:17;;;;;;;4.20;2.27;;;;;;;14.12;69.21;100606.00;5022404;28;20344;-81
2023/01/02 07:35:44;;;;;;;3.13;1.30;;;;;;;14.08;68.54;100607.03;5023742;28;20220;-79
2023/01/02 07:38:10;;;;;;;4.37;2.17;;;;;;;14.15;68.51;100602.44;5023599;28;20254;-78
2023/01/02 07:40:37;;;;;;;3.10;1.90;;;;;;;14.11;68.62;100612.16;5022433;28;20260;-81
2023/01/02 07:43:04;;;;;;;5.40;2.17;;;;;;;14.17;68.68;100621.63;5023819;28;20243;-80
2023/01/02 07:45:32;;;;;;;3.47;1.70;;;;;;;14.17;69.02;100608.50;5024457;28;20228;-81
2023/01/02 07:47:58;;;;;;;3.53;1.83;;;;;;;14.17;68.81;100633.00;5023908;28;20205;-82
2023/01/02 07:50:24;;;;;;;4.53;1.93;;;;;;;14.16;68.31;100633.88;5023205;28;20205;-80
2023/01/02 07:52:51;;;;;;;3.73;1.60;;;;;;;14.20;68.79;100621.53;5023147;28;20680;-81
2023/01/02 07:55:17;;;;;;;3.20;1.53;;;;;;;14.17;69.39;100634.75;5047874;23;20251;-80
2023/01/02 07:57:45;;;;;;;6.40;2.10;;;;;;;14.10;69.31;100644.59;5045667;28;20221;-79
2023/01/02 08:00:14;;;;;;;4.97;1.77;;;;;;;14.11;69.15;100617.41;5042068;28;20200;-77
2023/01/02 08:02:40;;;;;;;5.10;2.07;;;;;;;14.07;69.01;100621.91;5042806;28;20242;-77
2023/01/02 08:05:07;;;;;;;5.00;1.90;;;;;;;14.08;69.03;100622.78;5046267;28;20220;-77
2023/01/02 08:07:33;;;;;;;3.90;1.67;;;;;;;14.09;69.54;100625.34;5045412;28;20343;-77
2023/01/02 08:10:00;;;;;;;3.87;1.80;;;;;;;14.06;69.11;100630.69;5046309;28;20611;-79
2023/01/02 08:12:27;;;;;;;2.70;1.90;;;;;;;13.99;68.62;100630.91;5046681;28;20743;-78
2023/01/02 08:14:53;;;;;;;2.53;1.90;;;;;;;14.09;68.80;100632.34;5047146;28;20669;-78
2023/01/02 08:17:21;;;;;;;2.53;1.63;;;;;;;14.00;68.85;100646.63;5045720;28;20273;-78
2023/01/02 08:19:47;;;;;;;3.80;1.83;;;;;;;14.02;69.75;100626.44;5045095;28;20262;-78
2023/01/02 08:22:14;;;;;;;3.63;1.80;;;;;;;13.93;69.98;100608.34;5046370;28;20198;-79
2023/01/02 08:24:40;;;;;;;4.10;1.50;;;;;;;14.03;70.10;100594.03;5045804;28;20277;-80
2023/01/02 08:27:06;;;;;;;3.97;1.70;;;;;;;14.02;69.76;100596.72;5045793;28;20273;-77
2023/01/02 08:29:33;;;;;;;3.40;1.90;;;;;;;14.06;70.07;100590.47;5045827;28;20625;-77
2023/01/02 08:31:59;;;;;;;2.63;1.57;;;;;;;14.00;69.80;100596.75;5045348;28;20195;-77
2023/01/02 08:34:27;;;;;;;3.07;2.00;;;;;;;14.03;70.12;100587.91;5043405;28;20732;-78
2023/01/02 08:36:53;;;;;;;5.03;1.50;;;;;;;14.00;69.54;100612.50;5044669;28;20289;-77
2023/01/02 08:39:19;;;;;;;2.03;1.73;;;;;;;14.06;69.62;100599.19;5041902;28;20200;-77
2023/01/02 08:41:45;;;;;;;2.37;1.43;;;;;;;14.11;69.57;100614.78;5044065;28;20255;-78
2023/01/02 08:44:12;;;;;;;4.30;2.23;;;;;;;14.15;69.63;100612.94;5045105;28;20279;-76
2023/01/02 08:46:38;;;;;;;3.40;1.73;;;;;;;14.10;68.99;100626.22;5042995;28;20223;-78
2023/01/02 08:49:04;;;;;;;3.07;1.90;;;;;;;14.06;69.38;100619.34;5044973;28;20233;-77
2023/01/02 08:51:32;;;;;;;2.00;1.50;;;;;;;13.99;69.52;100626.50;5042899;28;20248;-78
2023/01/02 08:53:58;;;;;;;2.13;1.43;;;;;;;14.00;69.63;100623.00;5044999;28;20220;-78
2023/01/02 08:56:27;;;;;;;2.37;1.43;;;;;;;14.08;69.83;100615.75;5044171;28;20306;-77
2023/01/02 08:58:55;;;;;;;3.77;1.53;;;;;;;14.05;69.96;100628.09;5043502;28;20715;-78
2023/01/02 09:01:22;;;;;;;2.93;1.40;;;;;;;13.97;69.89;100627.47;5040861;28;20253;-79
2023/01/02 09:03:49;;;;;;;3.13;2.00;;;;;;;13.95;69.89;100626.66;5045808;28;20701;-79
2023/01/02 09:06:15;;;;;;;3.40;1.93;;;;;;;14.05;69.77;100621.09;5044355;28;20220;-76
2023/01/02 09:08:43;;;;;;;4.70;1.90;;;;;;;14.04;69.45;100627.25;5044295;28;20621;-77
2023/01/02 09:11:11;;;;;;;4.80;2.10;;;;;;;14.04;69.30;100629.88;5041469;28;20276;-77
2023/01/02 09:13:37;;;;;;;2.33;1.73;;;;;;;14.16;69.40;100633.03;5045049;28;20200;-80
2023/01/02 09:16:04;;;;;;;6.03;1.93;;;;;;;14.10;69.17;100642.81;5044145;28;20224;-77
2023/01/02 09:18:30;;;;;;;2.93;1.50;;;;;;;14.11;69.31;100651.53;5042554;28;20220;-77
2023/01/02 09:20:57;;;;;;;3.10;1.50;;;;;;;14.11;69.33;100635.78;5041228;28;20270;-77
2023/01/02 09:23:23;;;;;;;3.43;1.90;;;;;;;14.05;68.31;100659.59;5043310;28;20245;-77
2023/01/02 09:25:51;;;;;;;3.53;1.73;;;;;;;14.03;68.00;100667.53;5040057;28;20220;-77
2023/01/02 09:28:17;;;;;;;4.03;1.90;;;;;;;14.08;68.51;100684.00;5039798;28;20254;-78
2023/01/02 09:30:43;;;;;;;3.53;1.70;;;;;;;14.16;68.93;100680.28;5043654;28;20258;-78
2023/01/02 09:33:10;;;;;;;3.63;1.60;;;;;;;14.14;68.41;100701.34;5043496;28;20621;-77
2023/01/02 09:35:36;;;;;;;1.77;1.20;;;;;;;14.24;69.48;100680.91;5042752;28;20223;-77
2023/01/02 09:38:02;;;;;;;2.80;1.60;;;;;;;14.29;69.61;100666.75;5043834;28;20223;-78
2023/01/02 09:40:29;;;;;;;2.37;1.90;;;;;;;14.34;68.72;100678.88;5043407;28;20200;-77
2023/01/02 09:42:59;;;;;;;5.50;1.80;;;;;;;14.23;68.59;100690.56;5042088;28;20204;-77
2023/01/02 09:45:26;;;;;;;4.73;1.70;;;;;;;14.32;69.04;100680.69;5044833;28;20269;-77
2023/01/02 09:47:55;;;;;;;5.20;1.50;;;;;;;14.32;68.60;100685.94;5042658;28;20199;-77
2023/01/02 09:50:26;;;;;;;3.47;2.07;;;;;;;14.25;68.07;100725.53;5039917;28;20747;-78
2023/01/02 09:52:55;;;;;;;6.07;1.70;;;;;;;14.33;68.13;100727.03;5043489;28;20196;-80
2023/01/02 09:55:32;;;;;;;3.63;1.70;;;;;;;14.43;70.06;100691.69;5040375;28;20736;-80
2023/01/02 09:58:09;;;;;;;3.73;1.87;;;;;;;14.30;68.90;100689.47;5046084;28;20219;-77
2023/01/02 10:00:37;;;;;;;5.70;1.70;;;;;;;14.47;69.30;100683.69;5044457;28;20212;-77
2023/01/02 10:03:14;;;;;;;3.50;1.60;;;;;;;14.41;68.85;100694.41;5042953;28;20339;-77
2023/01/02 10:06:06;;;;;;;4.10;1.77;;;;;;;14.29;68.48;100715.75;5041535;28;20221;-77
2023/01/02 10:08:43;;;;;;;3.77;2.10;;;;;;;14.43;69.15;100696.97;5043482;28;20197;-78
2023/01/02 10:11:23;;;;;;;4.33;1.70;;;;;;;14.39;68.12;100718.97;5042692;28;20198;-79
2023/01/02 10:13:56;;;;;;;6.13;2.00;;;;;;;14.46;69.61;100700.34;5041809;28;20201;-78
2023/01/02 10:16:30;;;;;;;4.40;1.67;;;;;;;14.39;68.31;100714.59;5040746;28;20224;-78
2023/01/02 10:19:00;;;;;;;2.20;1.60;;;;;;;14.50;68.55;100706.38;5042999;28;20226;-79
2023/01/02 10:21:31;;;;;;;2.20;1.33;;;;;;;14.51;69.04;100700.22;5046023;28;20201;-79
2023/01/02 10:24:03;;;;;;;2.83;1.63;;;;;;;14.47;68.80;100693.34;5045682;28;20209;-79
2023/01/02 10:26:34;;;;;;;2.70;1.40;;;;;;;14.24;68.29;100723.78;5045160;28;20216;-79
2023/01/02 10:29:09;;;;;;;4.43;1.90;;;;;;;14.21;68.33;100710.75;5041534;28;20200;-82
2023/01/02 10:31:41;;;;;;;2.90;1.50;;;;;;;14.25;69.37;100706.25;5043306;28;20209;-79
2023/01/02 10:34:14;;;;;;;4.73;2.10;;;;;;;14.21;69.47;100688.88;5044697;28;20254;-82
2023/01/02 10:36:43;;;;;;;3.87;1.77;;;;;;;14.16;69.85;100686.41;5044885;28;20270;-82
2023/01/02 10:39:14;;;;;;;4.57;1.77;;;;;;;14.07;70.05;100669.16;5044923;28;20221;-78
2023/01/02 10:41:41;;;;;;;5.33;2.27;;;;;;;14.02;70.78;100655.31;5044722;28;20682;-79
2023/01/02 10:44:16;;;;;;;2.17;1.60;;;;;;;14.05;73.97;100581.72;5043867;28;20209;-79
2023/01/02 10:46:42;;;;;;;3.13;1.73;;;;;;;13.89;75.72;100513.13;5038314;28;20219;-77
2023/01/02 10:49:11;;;;;;;3.17;1.90;;;;;;;13.64;78.29;100425.59;5044336;28;20255;-82
2023/01/02 10:51:44;;;;;;;6.40;2.13;;;;;;;13.46;81.81;100317.75;5043314;28;20200;-80
2023/01/02 10:54:11;;;;;;;4.27;1.50;;;;;;;13.16;84.52;100219.09;5044468;28;20204;-80
2023/01/02 10:56:39;;;;;;;2.63;1.67;;;;;;;12.98;83.20;100203.06;5044526;28;20277;-78
2023/01/02 10:59:20;;;;;;;2.20;1.40;;;;;;;12.73;84.56;100189.94;5045023;28;20278;-80
2023/01/02 11:01:53;;;;;;;2.93;1.70;;;;;;;12.70;86.74;100153.34;5042865;28;20210;-80
2023/01/02 11:04:22;;;;;;;3.30;1.70;;;;;;;12.89;87.82;100130.03;5043618;28;20200;-80
2023/01/02 11:06:52;;;;;;;2.50;1.80;;;;;;;12.92;88.26;100124.69;5045681;28;20598;-80
2023/01/02 11:09:21;;;;;;;3.47;1.43;;;;;;;12.89;87.51;100130.03;5045498;28;20696;-80
2023/01/02 11:11:52;;;;;;;3.43;1.50;;;;;;;13.09;86.18;100163.44;5044100;28;20667;-80
2023/01/02 11:14:24;;;;;;;2.63;1.53;;;;;;;13.16;84.58;100191.16;5043872;28;20247;-79
2023/01/02 11:16:51;;;;;;;4.80;1.50;;;;;;;13.16;83.75;100243.56;5041853;28;20277;-78
2023/01/02 11:19:19;;;;;;;4.50;1.50;;;;;;;13.26;83.55;100271.19;5043282;28;20223;-80
2023/01/02 11:21:47;;;;;;;2.50;1.00;;;;;;;13.23;82.86;100294.88;5042850;28;20205;-79
2023/01/02 11:24:18;;;;;;;11.00;2.30;;;;;;;13.26;82.85;100323.63;5043400;28;20257;-78
2023/01/02 11:26:47;;;;;;;2.97;1.20;;;;;;;13.19;82.43;100350.06;5041031;28;20225;-77
2023/01/02 11:29:17;;;;;;;1.67;1.10;;;;;;;13.08;82.39;100360.88;5044277;28;20252;-80
2023/01/02 11:31:46;;;;;;;2.10;1.23;;;;;;;13.08;82.50;100366.09;5040132;28;20250;-79
2023/01/02 11:34:20;;;;;;;2.80;1.10;;;;;;;13.13;82.72;100355.50;5042716;28;20281;-79